METAR Data
IDs: Format: Raw Decoded Include TAF

Data at: 0029 UTC 25 Apr 2019

PANI 242356Z AUTO 35007KT 10SM BKN060 04/M08 A3010 RMK AO2 SLP160 T00391078 10044 21044 55001
PANI 242256Z AUTO 33009KT 10SM CLR 03/M08 A3009 RMK AO2 SLP159 T00281078
PANI 242156Z AUTO 26003KT 10SM CLR 02/M08 A3010 RMK AO2 SLP161 T00171078 FZRANO
PANI 242056Z AUTO 00000KT 10SM BKN050 01/M09 A3010 RMK AO2 SLP161 T00061089 55000 FZRANO
PANI 241956Z AUTO 00000KT 10SM CLR M02/M09 A3010 RMK AO2 SLP161 T10221089 FZRANO
PANI 241856Z AUTO 00000KT 10SM FEW060 01/M10 A3010 RMK AO2 SLP160 T00061100 FZRANO
PANI 241756Z AUTO 11003KT 10SM CLR M04/M11 A3010 RMK AO2 SLP161 T10441111 11044 21139 51015 FZRANO
PANI 241656Z AUTO 08003KT 10SM CLR M08/M11 A3009 RMK AO2 SLP159 T10831111 FZRANO
PANI 241556Z AUTO 00000KT 10SM CLR M11/M13 A3008 RMK AO2 SLP154 T11111128 FZRANO
PANI 241456Z AUTO 00000KT 10SM CLR M13/M15 A3006 RMK AO2 SLP147 T11331150 51009 FZRANO
PANI 241356Z AUTO 00000KT 10SM CLR M12/M14 A3006 RMK AO2 SLP146 T11221139 FZRANO
PANI 241256Z AUTO 00000KT 10SM CLR M11/M12 A3004 RMK AO2 SLP143 T11061122 FZRANO
PANI 241156Z AUTO 00000KT 10SM CLR M09/M12 A3003 RMK AO2 SLP138 T10941117 11011 21094 51016 FZRANO
PANI 241056Z AUTO 08003KT 10SM CLR M08/M10 A3002 RMK AO2 SLP135 T10781100 FZRANO
PANI 240956Z AUTO 11003KT 10SM CLR M06/M09 A3000 RMK AO2 SLP128 T10611094 FZRANO
PANI 240856Z AUTO 05003KT 10SM CLR M04/M09 A2998 RMK AO2 SLP122 T10391094 410111117 51017 FZRANO
PANI 240756Z AUTO 04003KT 10SM OVC060 M03/M09 A2997 RMK AO2 SLP117 T10281094 FZRANO
PANI 240656Z AUTO 04003KT 10SM OVC060 M02/M09 A2995 RMK AO2 SLP111 T10171089 FZRANO
PANI 240556Z AUTO 10003KT 10SM OVC060 M01/M09 A2993 RMK AO2 SLP105 60000 T10111094 11011 21022 53012 FZRANO
PANI 240456Z AUTO 00000KT 10SM OVC065 M02/M09 A2992 RMK AO2 SLP100 T10171089 FZRANO
PANI 240356Z AUTO 00000KT 10SM OVC060 M02/M08 A2991 RMK AO2 SLP096 T10171083 FZRANO
PANI 240256Z AUTO 10008KT 10SM BKN035 OVC060 M02/M07 A2990 RMK AO2 SLP093 60000 T10221067 53014 FZRANO
PANI 240156Z AUTO 20003KT 10SM FEW039 SCT050 OVC060 M02/M09 A2988 RMK AO2 SLP088 T10171089 FZRANO
PANI 240056Z AUTO 11007KT 10SM BKN040 BKN049 OVC060 M02/M08 A2987 RMK AO2 UPE20 SLP084 P0000 T10171078 FZRANO
PANI 232356Z AUTO 11006KT 10SM UP BKN034 OVC047 M02/M09 A2986 RMK AO2 UPB56 SLP079 P0000 60000 T10221089 11017 21067 51010 FZRANO
PANI 232256Z AUTO 19005KT 10SM FEW032 OVC055 M02/M09 A2985 RMK AO2 SLP076 T10221089 FZRANO
PANI 232204Z AUTO 19004KT 10SM SCT029 OVC055 M03/M08 A2984 RMK AO2 FZRANO
PANI 232156Z AUTO 00000KT 10SM BKN029 OVC050 M03/M08 A2984 RMK AO2 UPE24 SLP074 P0000 T10281083 FZRANO
PANI 232120Z AUTO 15007KT 10SM UP BKN029 OVC049 M03/M08 A2983 RMK AO2 P0000 FZRANO
PANI 232056Z AUTO VRB05KT 10SM UP SCT029 OVC049 M03/M09 A2983 RMK AO2 UPB32SNE30B34E48 SLP069 P0000 60000 T10331089 51012 FZRANO
PANI 231956Z AUTO 00000KT 9SM -SN BKN025 OVC033 M04/M08 A2981 RMK AO2 SLP063 P0000 T10441083 FZRANO
PANI 231953Z AUTO 13005KT 9SM -SN BKN025 OVC033 M04/M08 A2981 RMK AO2 P0000 FZRANO
PANI 231918Z AUTO 11007KT 9SM -SN SCT022 OVC031 M05/M09 A2980 RMK AO2 P0000 FZRANO
PANI 231856Z AUTO 11006KT 9SM -SN BKN022 BKN027 OVC036 M05/M08 A2979 RMK AO2 SLP056 P0000 T10501083 FZRANO
PANI 231805Z AUTO 11005KT 9SM -SN SCT019 BKN032 OVC039 M07/M09 A2978 RMK AO2 P0000 FZRANO
PANI 231756Z AUTO 11006KT 9SM -SN SCT019 BKN025 OVC036 M07/M10 A2977 RMK AO2 SLP051 P0000 60000 T10671100 11067 21117 53015 FZRANO
PANI 231709Z AUTO 12006KT 9SM -SN OVC017 M08/M11 A2976 RMK AO2 P0000 FZRANO
PANI 231656Z AUTO 13005KT 2SM -SN BKN017 OVC024 M08/M11 A2976 RMK AO2 VIS 1V5 SLP046 P0000 T10781106 FZRANO
PANI 231556Z AUTO 09006KT 9SM -SN OVC021 M09/M11 A2974 RMK AO2 SLP041 P0000 T10891111 FZRANO
PANI 231456Z AUTO 11005KT 9SM -SN OVC017 M09/M12 A2973 RMK AO2 SLP037 P0000 60000 T10941117 51014 FZRANO
PANI 231356Z AUTO 12006KT 9SM -SN OVC023 M10/M12 A2972 RMK AO2 SLP034 P0000 T11001122 FZRANO
PANI 231256Z AUTO 12006KT 9SM -SN OVC021 M11/M12 A2971 RMK AO2 SNB21 SLP030 P0000 T11061122 FZRANO
PANI 231234Z AUTO 13006KT 9SM -SN BKN019 BKN040 M11/M12 A2970 RMK AO2 SNB21 P0000 FZRANO